Time;durP1;ratioP1;P1;durP2;ratioP2;P2;SDS_P1;SDS_P2;PMS_P1;PMS_P2;Temp;Humidity;BMP_temperature;BMP_pressure;BME280_temperature;BME280_humidity;BME280_pressure;Samples;Min_cycle;Max_cycle;Signal;HPM_P1;HPM_P2
2023/11/19 00:00:26;;;;;;;2.75;2.15;;;;;;;3.86;56.87;94920.50;4854443;29;20485;-73
2023/11/19 00:02:52;;;;;;;3.15;1.95;;;;;;;3.86;57.19;94921.25;4854416;29;20037;-73
2023/11/19 00:05:18;;;;;;;3.90;2.28;;;;;;;3.87;56.65;94932.91;4839652;29;20034;-73
2023/11/19 00:07:44;;;;;;;2.55;2.03;;;;;;;3.90;56.55;94924.75;4870133;29;20037;-74
2023/11/19 00:10:10;;;;;;;3.00;2.20;;;;;;;3.93;56.61;94931.34;4863055;29;20431;-74
2023/11/19 00:12:41;;;;;;;4.22;2.22;;;;;;;3.92;56.59;94919.69;4857265;29;20117;-74
2023/11/19 00:15:11;;;;;;;3.58;2.40;;;;;;;3.93;56.37;94918.50;4857252;29;20113;-73
2023/11/19 00:17:37;;;;;;;2.63;2.35;;;;;;;3.91;56.56;94911.94;4859766;29;20042;-73
2023/11/19 00:20:05;;;;;;;2.80;2.10;;;;;;;3.91;56.45;94911.94;4869704;29;20033;-73
2023/11/19 00:22:31;;;;;;;2.85;2.05;;;;;;;3.91;56.45;94915.41;4853668;29;20362;-74
2023/11/19 00:24:56;;;;;;;2.40;2.10;;;;;;;3.88;56.42;94918.13;4869960;29;20101;-73
2023/11/19 00:27:22;;;;;;;3.42;2.45;;;;;;;3.83;56.83;94916.59;4855844;29;20047;-74
2023/11/19 00:29:47;;;;;;;3.05;2.10;;;;;;;3.86;56.75;94915.81;4852579;29;20436;-75
2023/11/19 00:32:12;;;;;;;3.00;2.28;;;;;;;3.85;56.81;94922.44;4858557;29;20033;-74
2023/11/19 00:34:38;;;;;;;4.30;2.10;;;;;;;3.85;56.83;94913.50;4870664;29;20045;-72
2023/11/19 00:37:03;;;;;;;3.65;2.17;;;;;;;3.84;56.89;94918.16;4855116;29;20041;-74
2023/11/19 00:39:29;;;;;;;4.13;2.35;;;;;;;3.84;56.90;94925.53;4856735;29;20033;-73
2023/11/19 00:41:54;;;;;;;2.35;2.15;;;;;;;3.86;56.70;94936.81;4840356;29;20049;-75
2023/11/19 00:44:20;;;;;;;2.35;1.77;;;;;;;3.84;56.90;94934.47;4845263;29;20030;-74
2023/11/19 00:46:45;;;;;;;3.20;2.30;;;;;;;3.84;56.83;94936.41;4855770;29;20034;-73
2023/11/19 00:49:11;;;;;;;2.95;2.28;;;;;;;3.80;57.08;94917.41;4839158;29;20037;-73
2023/11/19 00:51:37;;;;;;;2.35;1.83;;;;;;;3.71;57.39;94936.06;4865122;29;20034;-73
2023/11/19 00:54:03;;;;;;;2.85;2.20;;;;;;;3.69;57.41;94927.53;4868818;29;20033;-73
2023/11/19 00:56:28;;;;;;;2.97;2.53;;;;;;;3.66;57.55;94918.19;4870243;29;20056;-73
2023/11/19 00:58:54;;;;;;;3.63;2.65;;;;;;;3.65;57.69;94934.91;4869002;29;20163;-74
2023/11/19 01:01:19;;;;;;;5.38;2.97;;;;;;;3.61;57.52;94926.78;4855464;29;20501;-74
2023/11/19 01:03:45;;;;;;;2.83;2.10;;;;;;;3.61;57.59;94934.13;4857772;29;20704;-73
2023/11/19 01:06:10;;;;;;;3.28;2.50;;;;;;;3.56;57.57;94910.88;4869611;29;20501;-73
2023/11/19 01:08:35;;;;;;;2.97;1.85;;;;;;;3.57;57.55;94931.44;4856451;29;20037;-74
2023/11/19 01:11:02;;;;;;;2.80;2.17;;;;;;;3.58;57.68;94929.50;4856107;29;20112;-73
2023/11/19 01:13:27;;;;;;;3.22;2.90;;;;;;;3.60;57.65;94922.47;4868399;29;20191;-73
2023/11/19 01:15:53;;;;;;;2.80;2.50;;;;;;;3.59;57.67;94931.03;4855620;29;20045;-73
2023/11/19 01:18:18;;;;;;;2.83;2.28;;;;;;;3.63;57.49;94926.38;4853581;29;20025;-73
2023/11/19 01:20:43;;;;;;;2.67;1.95;;;;;;;3.64;57.34;94938.81;4854582;29;20472;-74
2023/11/19 01:23:09;;;;;;;2.63;1.75;;;;;;;3.63;57.39;94938.03;4868931;29;20580;-72
2023/11/19 01:25:35;;;;;;;2.60;2.17;;;;;;;3.67;57.37;94946.97;4867862;29;20038;-73
2023/11/19 01:28:02;;;;;;;2.63;1.90;;;;;;;3.65;57.28;94940.34;4868472;29;20049;-74
2023/11/19 01:30:27;;;;;;;3.05;2.47;;;;;;;3.59;57.11;94922.88;4868177;29;20042;-73
2023/11/19 01:32:53;;;;;;;4.30;2.17;;;;;;;3.63;57.14;94942.69;4852518;29;20089;-74
2023/11/19 01:35:19;;;;;;;2.28;1.92;;;;;;;3.66;57.22;94960.91;4869408;29;20034;-74
2023/11/19 01:37:44;;;;;;;2.63;2.15;;;;;;;3.65;57.05;94954.72;4868111;29;20085;-74
2023/11/19 01:40:11;;;;;;;3.28;2.35;;;;;;;3.67;56.72;94965.19;4837868;29;20030;-74
2023/11/19 01:42:40;;;;;;;3.58;2.15;;;;;;;3.65;56.63;94954.72;4841285;29;20037;-74
2023/11/19 01:45:07;;;;;;;3.92;1.90;;;;;;;3.67;56.61;94966.00;4869080;29;20105;-74
2023/11/19 01:47:33;;;;;;;2.20;1.90;;;;;;;3.63;56.31;94965.22;4867963;29;20034;-74
2023/11/19 01:49:59;;;;;;;3.45;2.38;;;;;;;3.60;56.29;94962.50;4869948;29;20497;-75
2023/11/19 01:52:25;;;;;;;3.75;2.00;;;;;;;3.65;56.21;94973.75;4851222;29;20041;-74
2023/11/19 01:54:52;;;;;;;2.83;2.20;;;;;;;3.60;56.56;94976.09;4867372;29;20059;-76
2023/11/19 01:57:18;;;;;;;4.32;2.38;;;;;;;3.68;56.06;94974.91;4851945;29;20099;-74
2023/11/19 01:59:43;;;;;;;3.38;2.50;;;;;;;3.69;55.95;94971.81;4852534;29;20624;-74
2023/11/19 02:02:09;;;;;;;2.70;2.05;;;;;;;3.73;55.60;94975.28;4859206;29;20044;-74
2023/11/19 02:04:34;;;;;;;3.35;2.58;;;;;;;3.78;55.51;94973.31;4863185;29;20716;-73
2023/11/19 02:07:00;;;;;;;3.05;2.25;;;;;;;3.84;55.17;94964.41;4840448;29;20464;-74
2023/11/19 02:09:26;;;;;;;2.85;2.05;;;;;;;3.83;54.99;94959.34;4838599;29;20098;-74
2023/11/19 02:11:53;;;;;;;3.05;2.10;;;;;;;3.89;54.86;94953.09;4855813;29;20068;-73
2023/11/19 02:14:19;;;;;;;3.78;1.90;;;;;;;3.89;55.00;94957.75;4849815;29;20034;-73
2023/11/19 02:16:45;;;;;;;4.75;2.05;;;;;;;3.86;54.91;94950.41;4867369;29;20056;-75
2023/11/19 02:19:10;;;;;;;3.20;2.05;;;;;;;3.90;54.95;94948.44;4852270;29;20026;-73
2023/11/19 02:21:36;;;;;;;2.88;1.75;;;;;;;3.91;54.70;94950.78;4851022;29;20484;-73
2023/11/19 02:24:06;;;;;;;3.30;2.10;;;;;;;3.88;54.85;94946.09;4851391;29;20093;-74
2023/11/19 02:26:39;;;;;;;2.47;2.00;;;;;;;3.83;54.87;94953.91;4855169;29;20033;-73
2023/11/19 02:29:06;;;;;;;3.47;2.20;;;;;;;3.71;55.23;94957.81;4831751;29;20088;-73
2023/11/19 02:31:32;;;;;;;3.47;2.10;;;;;;;3.68;55.32;94948.50;4871569;29;20504;-73
2023/11/19 02:33:57;;;;;;;2.85;2.15;;;;;;;3.60;55.63;94935.31;4867430;29;20178;-73
2023/11/19 02:36:22;;;;;;;2.60;1.80;;;;;;;3.63;55.42;94920.94;4868651;29;20036;-73
2023/11/19 02:38:48;;;;;;;3.42;2.13;;;;;;;3.65;55.54;94930.25;4851439;29;20511;-73
2023/11/19 02:41:14;;;;;;;3.38;2.20;;;;;;;3.55;55.61;94933.75;4871827;29;20071;-73
2023/11/19 02:43:39;;;;;;;3.20;2.20;;;;;;;3.62;55.63;94935.72;4867908;29;20120;-73
2023/11/19 02:46:08;;;;;;;2.58;2.15;;;;;;;3.64;55.66;94945.00;4867206;29;20128;-74
2023/11/19 02:48:37;;;;;;;2.13;1.75;;;;;;;3.61;55.85;94956.69;4837440;29;20045;-73
2023/11/19 02:51:09;;;;;;;2.20;1.70;;;;;;;3.60;55.81;94965.97;4857975;29;20373;-73
2023/11/19 02:53:35;;;;;;;3.30;2.17;;;;;;;3.56;55.93;94957.06;4838756;29;20052;-74
2023/11/19 02:56:11;;;;;;;3.00;2.03;;;;;;;3.49;56.02;94959.00;4841351;29;20643;-73
2023/11/19 02:58:37;;;;;;;3.13;2.20;;;;;;;3.41;56.37;94941.94;4847346;29;20044;-74
2023/11/19 03:01:12;;;;;;;3.15;2.50;;;;;;;3.36;56.49;94942.34;4854665;29;20139;-74
2023/11/19 03:03:38;;;;;;;1.92;1.70;;;;;;;3.37;56.48;94941.94;4845797;29;20033;-73
2023/11/19 03:06:09;;;;;;;2.38;2.15;;;;;;;3.39;56.18;94941.56;4867116;29;20037;-73
2023/11/19 03:08:35;;;;;;;2.85;1.67;;;;;;;3.37;56.49;94949.31;4866885;29;20041;-73
2023/11/19 03:11:01;;;;;;;2.80;2.10;;;;;;;3.37;56.54;94954.75;4851440;29;20760;-73
2023/11/19 03:13:26;;;;;;;2.25;1.90;;;;;;;3.32;56.90;94960.56;4851760;29;20120;-73
2023/11/19 03:15:53;;;;;;;3.50;2.17;;;;;;;3.29;56.40;94970.28;4851799;29;20096;-73
2023/11/19 03:18:19;;;;;;;2.92;2.10;;;;;;;3.29;56.31;94967.56;4851248;29;20040;-74
2023/11/19 03:20:46;;;;;;;3.08;2.30;;;;;;;3.29;56.53;94978.44;4835005;29;20033;-73
2023/11/19 03:23:12;;;;;;;2.83;1.85;;;;;;;3.27;56.61;94975.34;4844977;29;20037;-73
2023/11/19 03:25:37;;;;;;;2.85;2.10;;;;;;;3.24;56.76;94973.41;4866092;29;20037;-74
2023/11/19 03:28:03;;;;;;;2.65;1.98;;;;;;;3.22;56.80;94972.25;4866722;29;20112;-73
2023/11/19 03:30:30;;;;;;;3.17;2.30;;;;;;;3.26;56.56;94979.22;4852786;29;20056;-73
2023/11/19 03:32:56;;;;;;;2.85;1.95;;;;;;;3.19;56.72;94962.91;4851472;29;20105;-72
2023/11/19 03:35:22;;;;;;;3.08;2.35;;;;;;;3.25;56.81;94968.72;4875307;29;20048;-73
2023/11/19 03:37:47;;;;;;;3.05;1.98;;;;;;;3.30;56.70;94971.06;4854121;29;20036;-73
2023/11/19 03:40:13;;;;;;;3.78;2.20;;;;;;;3.28;56.69;94979.63;4871287;29;20033;-74
2023/11/19 03:42:41;;;;;;;4.45;2.58;;;;;;;3.25;56.59;94983.09;4845533;29;20033;-73
2023/11/19 03:45:08;;;;;;;2.97;1.98;;;;;;;3.28;56.69;94984.28;4854442;29;20025;-73
2023/11/19 03:47:34;;;;;;;4.20;2.25;;;;;;;3.27;56.65;95005.25;4854434;29;20420;-74
2023/11/19 03:50:00;;;;;;;3.10;2.20;;;;;;;3.29;56.82;95015.72;4854362;29;20037;-73
2023/11/19 03:52:26;;;;;;;2.70;2.00;;;;;;;3.34;56.51;95021.53;4868242;29;20029;-73
2023/11/19 03:54:53;;;;;;;3.00;2.25;;;;;;;3.36;56.61;95027.34;4871447;29;20053;-73
2023/11/19 03:57:18;;;;;;;2.28;1.90;;;;;;;3.39;56.65;95004.84;4854259;29;20097;-74
2023/11/19 03:59:44;;;;;;;2.15;1.80;;;;;;;3.38;56.22;95003.28;4870706;29;20033;-73
2023/11/19 04:02:10;;;;;;;2.50;1.92;;;;;;;3.38;56.28;95006.00;4871065;29;20409;-74
2023/11/19 04:04:35;;;;;;;3.70;2.10;;;;;;;3.39;56.01;95010.28;4856024;29;20041;-73
2023/11/19 04:07:02;;;;;;;2.75;2.00;;;;;;;3.35;56.54;95020.38;4857900;29;20159;-73
2023/11/19 04:09:28;;;;;;;2.92;2.20;;;;;;;3.38;56.66;95016.09;4867349;29;20076;-74
2023/11/19 04:11:54;;;;;;;3.25;1.80;;;;;;;3.49;56.16;95026.97;4842534;29;20479;-73
2023/11/19 04:14:19;;;;;;;3.85;2.20;;;;;;;3.53;56.08;95033.19;4855815;29;20042;-73
2023/11/19 04:16:45;;;;;;;4.03;2.28;;;;;;;3.57;56.27;95023.88;4874011;29;20239;-73
2023/11/19 04:19:11;;;;;;;3.97;2.40;;;;;;;3.47;55.93;95000.19;4872595;29;20055;-73
2023/11/19 04:21:36;;;;;;;1.92;1.73;;;;;;;3.57;56.08;95023.09;4857092;29;20053;-72
2023/11/19 04:24:02;;;;;;;3.13;2.30;;;;;;;3.53;56.06;95023.06;4869695;29;20093;-73
2023/11/19 04:26:27;;;;;;;2.95;2.28;;;;;;;3.52;56.03;95023.47;4858428;29;20527;-75
2023/11/19 04:28:53;;;;;;;3.60;2.00;;;;;;;3.56;55.74;95021.53;4872564;29;20461;-73
2023/11/19 04:31:18;;;;;;;3.10;2.80;;;;;;;3.54;56.10;95029.28;4868878;29;20089;-73
2023/11/19 04:33:44;;;;;;;2.75;2.40;;;;;;;3.52;55.95;95035.13;4857827;29;20460;-73
2023/11/19 04:36:14;;;;;;;3.45;2.58;;;;;;;3.50;55.92;95032.03;4860813;29;20092;-73
2023/11/19 04:38:39;;;;;;;2.28;1.85;;;;;;;3.52;55.89;95043.28;4871819;29;20025;-74
2023/11/19 04:41:06;;;;;;;2.67;2.30;;;;;;;3.52;56.11;95046.00;4869483;29;20048;-73
2023/11/19 04:43:34;;;;;;;2.40;1.92;;;;;;;3.51;55.94;95022.69;4853499;29;20073;-73
2023/11/19 04:46:00;;;;;;;3.10;2.33;;;;;;;3.56;55.52;95026.97;4855745;29;20717;-74
2023/11/19 04:48:25;;;;;;;3.63;2.35;;;;;;;3.55;55.46;95036.28;4864457;29;20112;-74
2023/11/19 04:50:52;;;;;;;2.92;2.35;;;;;;;3.59;55.28;95023.47;4854367;29;20037;-73
2023/11/19 04:53:17;;;;;;;3.20;2.42;;;;;;;3.57;55.12;95034.72;4855365;29;20072;-74
2023/11/19 04:55:43;;;;;;;2.60;2.10;;;;;;;3.61;55.28;95023.84;4873628;29;20120;-74
2023/11/19 04:58:09;;;;;;;3.55;2.28;;;;;;;3.62;55.43;95028.91;4872239;29;20068;-74
2023/11/19 05:00:34;;;;;;;4.63;2.35;;;;;;;3.59;55.39;95039.78;4873479;29;20025;-74
2023/11/19 05:03:00;;;;;;;7.05;2.72;;;;;;;3.62;55.44;95039.00;4871704;29;20029;-73
2023/11/19 05:05:25;;;;;;;2.83;2.22;;;;;;;3.60;55.67;95057.63;4868670;29;20517;-74
2023/11/19 05:07:50;;;;;;;2.67;2.20;;;;;;;3.54;55.26;95054.53;4859095;29;20028;-73
2023/11/19 05:10:16;;;;;;;2.65;2.15;;;;;;;3.68;55.00;95067.34;4868767;29;20583;-74
2023/11/19 05:12:41;;;;;;;2.75;1.85;;;;;;;3.72;54.60;95068.13;4866037;29;20048;-75
2023/11/19 05:15:07;;;;;;;3.03;2.33;;;;;;;3.73;54.77;95061.53;4862203;29;20041;-74
2023/11/19 05:17:33;;;;;;;3.55;2.28;;;;;;;3.73;54.73;95059.59;4856001;29;20077;-74
2023/11/19 05:19:58;;;;;;;3.15;2.10;;;;;;;3.73;54.59;95056.88;4856135;29;20201;-74
2023/11/19 05:22:24;;;;;;;3.90;2.08;;;;;;;3.70;54.86;95060.34;4854501;29;20048;-74
2023/11/19 05:24:49;;;;;;;4.00;2.33;;;;;;;3.72;54.58;95054.50;4854741;29;20038;-73
2023/11/19 05:27:15;;;;;;;2.83;2.15;;;;;;;3.71;54.79;95053.75;4868337;29;20097;-73
2023/11/19 05:29:41;;;;;;;3.28;2.30;;;;;;;3.64;55.00;95063.84;4839292;29;20120;-74
2023/11/19 05:32:07;;;;;;;3.85;2.40;;;;;;;3.67;54.92;95049.47;4852838;29;20420;-74
2023/11/19 05:34:32;;;;;;;3.33;2.15;;;;;;;3.71;54.97;95053.75;4868241;29;20037;-73
2023/11/19 05:36:57;;;;;;;2.70;2.28;;;;;;;3.71;54.55;95052.97;4839715;29;20136;-74
2023/11/19 05:39:24;;;;;;;3.10;2.10;;;;;;;3.71;54.54;95058.41;4822394;29;20469;-74
2023/11/19 05:41:49;;;;;;;4.57;2.38;;;;;;;3.72;54.52;95059.97;4867379;29;20044;-74
2023/11/19 05:44:15;;;;;;;4.35;2.60;;;;;;;3.72;54.37;95068.13;4854170;29;20048;-74
2023/11/19 05:46:42;;;;;;;3.25;2.25;;;;;;;3.66;54.31;95075.88;4855457;29;20349;-74
2023/11/19 05:49:08;;;;;;;4.07;2.47;;;;;;;3.60;54.79;95077.44;4863765;29;20037;-73
2023/11/19 05:51:38;;;;;;;3.13;2.50;;;;;;;3.61;54.75;95072.78;4852948;29;20554;-74
2023/11/19 05:54:06;;;;;;;4.07;2.40;;;;;;;3.62;54.90;95063.47;4852593;29;20101;-73
2023/11/19 05:56:32;;;;;;;2.45;2.10;;;;;;;3.55;54.78;95082.47;4838137;29;20122;-74
2023/11/19 05:59:00;;;;;;;4.40;2.25;;;;;;;3.61;54.98;95086.38;4838978;29;20073;-75
2023/11/19 06:01:26;;;;;;;3.03;2.38;;;;;;;3.62;54.99;95096.09;4867070;29;20058;-74
2023/11/19 06:03:51;;;;;;;3.63;2.45;;;;;;;3.65;54.56;95093.38;4852935;29;20047;-75
2023/11/19 06:06:17;;;;;;;3.25;2.50;;;;;;;3.62;54.74;95096.09;4854501;29;20033;-75
2023/11/19 06:08:42;;;;;;;2.83;2.13;;;;;;;3.65;54.89;95100.75;4845681;29;20477;-75
2023/11/19 06:11:14;;;;;;;3.63;2.35;;;;;;;3.64;54.77;95097.25;4856669;29;20464;-74
2023/11/19 06:13:39;;;;;;;3.10;2.22;;;;;;;3.57;55.03;95094.53;4867271;29;20041;-74
2023/11/19 06:16:05;;;;;;;3.72;2.40;;;;;;;3.55;55.05;95085.19;4856294;29;20040;-75
2023/11/19 06:18:31;;;;;;;3.85;2.78;;;;;;;3.61;55.03;95091.81;4867114;29;20034;-73
2023/11/19 06:20:56;;;;;;;2.92;2.13;;;;;;;3.55;55.28;95090.63;4851386;29;20161;-74
2023/11/19 06:23:22;;;;;;;3.80;2.30;;;;;;;3.59;55.17;95089.47;4867293;29;20037;-75
2023/11/19 06:25:47;;;;;;;3.38;2.22;;;;;;;3.61;54.85;95091.81;4867193;29;20044;-74
2023/11/19 06:28:13;;;;;;;3.15;2.30;;;;;;;3.53;54.96;95098.41;4867349;29;20057;-75
2023/11/19 06:30:39;;;;;;;2.70;2.15;;;;;;;3.51;55.13;95117.84;4867257;29;20412;-75
2023/11/19 06:33:04;;;;;;;3.15;2.45;;;;;;;3.50;55.37;95096.47;4854786;29;20092;-75
2023/11/19 06:35:35;;;;;;;3.40;2.60;;;;;;;3.47;55.46;95106.94;4864578;29;20048;-75
2023/11/19 06:38:02;;;;;;;3.00;2.08;;;;;;;3.49;55.42;95108.50;4839541;29;20144;-76
2023/11/19 06:40:29;;;;;;;4.40;2.45;;;;;;;3.51;55.31;95117.06;4867254;29;20151;-74
2023/11/19 06:42:54;;;;;;;4.45;2.25;;;;;;;3.53;54.99;95112.00;4842152;29;20036;-75
2023/11/19 06:45:20;;;;;;;5.20;2.70;;;;;;;3.45;54.85;95106.56;4856039;29;20065;-77
2023/11/19 06:47:45;;;;;;;4.18;2.67;;;;;;;3.40;54.74;95111.59;4852047;29;20124;-74
2023/11/19 06:50:12;;;;;;;2.70;2.42;;;;;;;3.38;55.12;95117.44;4854360;29;20122;-74
2023/11/19 06:52:37;;;;;;;3.15;2.45;;;;;;;3.43;54.87;95108.88;4864886;29;20109;-76
2023/11/19 06:55:04;;;;;;;3.88;2.47;;;;;;;3.40;54.57;95112.38;4872046;29;20045;-75
2023/11/19 06:57:30;;;;;;;3.58;2.20;;;;;;;3.39;54.48;95107.34;4843941;29;20045;-74
2023/11/19 06:59:57;;;;;;;3.45;2.42;;;;;;;3.39;54.57;95110.84;4857957;29;20066;-75
2023/11/19 07:02:22;;;;;;;4.88;2.90;;;;;;;3.41;54.79;95113.16;4853413;29;20037;-75
2023/11/19 07:04:47;;;;;;;3.38;2.80;;;;;;;3.40;54.56;95109.66;4855084;29;20044;-75
2023/11/19 07:07:15;;;;;;;3.63;2.10;;;;;;;3.38;54.47;95106.56;4847249;29;20160;-74
2023/11/19 07:09:40;;;;;;;3.28;2.42;;;;;;;3.40;54.49;95123.25;4837642;29;20037;-74
2023/11/19 07:12:06;;;;;;;3.97;2.67;;;;;;;3.39;54.67;95127.13;4867218;29;20089;-74
2023/11/19 07:14:31;;;;;;;4.15;3.03;;;;;;;3.34;54.49;95113.94;4867215;29;20408;-74
2023/11/19 07:16:57;;;;;;;4.90;3.03;;;;;;;3.34;54.85;95116.66;4867156;29;20041;-75
2023/11/19 07:19:22;;;;;;;3.58;2.95;;;;;;;3.36;54.69;95108.88;4851407;29;20041;-75
2023/11/19 07:21:48;;;;;;;3.08;2.45;;;;;;;3.37;54.57;95115.09;4866585;29;20071;-76
2023/11/19 07:24:13;;;;;;;5.25;3.13;;;;;;;3.35;54.38;95115.47;4871658;29;20040;-75
2023/11/19 07:26:43;;;;;;;3.50;2.78;;;;;;;3.28;54.50;95101.88;4838267;29;20044;-74
2023/11/19 07:29:09;;;;;;;4.38;3.20;;;;;;;3.34;54.51;95124.78;4859043;29;20044;-74
2023/11/19 07:31:36;;;;;;;4.32;3.08;;;;;;;3.36;54.55;95127.91;4860374;29;20056;-75
2023/11/19 07:34:02;;;;;;;4.68;3.05;;;;;;;3.38;54.13;95136.47;4862921;29;20033;-73
2023/11/19 07:36:27;;;;;;;3.67;2.88;;;;;;;3.41;54.33;95129.47;4867538;29;20456;-75
2023/11/19 07:38:53;;;;;;;3.92;2.70;;;;;;;3.42;53.93;95126.34;4845788;29;20107;-75
2023/11/19 07:41:19;;;;;;;3.55;2.60;;;;;;;3.45;53.67;95133.75;4858221;29;20029;-75
2023/11/19 07:43:46;;;;;;;3.35;2.53;;;;;;;3.54;53.64;95135.31;4859042;29;20081;-76
2023/11/19 07:46:15;;;;;;;4.07;3.03;;;;;;;3.74;53.41;95139.22;4849160;29;20037;-75
2023/11/19 07:48:42;;;;;;;4.53;3.22;;;;;;;4.61;51.65;95135.25;4870018;29;20037;-75
2023/11/19 07:51:07;;;;;;;3.38;2.45;;;;;;;6.05;47.84;95159.44;4871665;29;20912;-75
2023/11/19 07:53:33;;;;;;;4.78;3.13;;;;;;;5.95;47.58;95152.09;4859523;29;20064;-75
2023/11/19 07:56:01;;;;;;;4.45;3.33;;;;;;;5.38;48.44;95143.47;4856504;29;20424;-75
2023/11/19 07:58:27;;;;;;;4.03;2.75;;;;;;;5.21;48.87;95145.88;4843072;29;20042;-75
2023/11/19 08:00:52;;;;;;;4.38;3.00;;;;;;;5.12;49.16;95125.72;4856567;29;20105;-75
2023/11/19 08:03:18;;;;;;;3.08;2.35;;;;;;;4.83;49.16;95144.13;4857110;29;20045;-75
2023/11/19 08:05:46;;;;;;;3.53;2.33;;;;;;;4.71;49.77;95148.06;4865699;29;20214;-75
2023/11/19 08:08:11;;;;;;;3.83;2.67;;;;;;;4.57;50.04;95151.56;4869399;29;20134;-75
2023/11/19 08:10:37;;;;;;;3.95;2.80;;;;;;;4.49;50.70;95155.50;4870217;29;20120;-74
2023/11/19 08:13:02;;;;;;;3.88;2.75;;;;;;;4.43;50.84;95157.06;4871008;29;20711;-75
2023/11/19 08:15:27;;;;;;;3.50;2.95;;;;;;;4.37;51.28;95158.63;4857812;29;20037;-75
2023/11/19 08:17:53;;;;;;;5.93;3.22;;;;;;;4.36;51.33;95174.19;4863381;29;20031;-75
2023/11/19 08:20:18;;;;;;;5.07;3.60;;;;;;;4.27;51.57;95165.63;4860518;29;20133;-74
2023/11/19 08:22:44;;;;;;;3.80;3.00;;;;;;;4.30;51.52;95164.06;4870547;29;20044;-75
2023/11/19 08:25:09;;;;;;;4.15;3.05;;;;;;;4.31;51.63;95173.81;4855679;29;20036;-74
2023/11/19 08:27:34;;;;;;;4.15;3.20;;;;;;;4.29;51.50;95171.44;4863428;29;20041;-74
2023/11/19 08:30:00;;;;;;;4.40;3.60;;;;;;;4.21;51.65;95170.69;4823902;29;20041;-74
2023/11/19 08:32:26;;;;;;;8.10;3.90;;;;;;;4.20;51.26;95157.47;4839296;29;20077;-74
2023/11/19 08:34:52;;;;;;;4.53;2.95;;;;;;;4.12;51.46;95175.72;4839501;29;20112;-76
2023/11/19 08:37:21;;;;;;;3.22;2.67;;;;;;;4.11;51.90;95176.13;4855573;29;20128;-74
2023/11/19 08:39:50;;;;;;;4.43;3.03;;;;;;;4.07;51.70;95194.38;4840167;29;20090;-74
2023/11/19 08:42:16;;;;;;;5.43;3.63;;;;;;;4.05;51.98;95183.13;4838957;29;20106;-73
2023/11/19 08:44:43;;;;;;;4.13;3.38;;;;;;;4.05;51.99;95186.63;4839364;29;20640;-74
2023/11/19 08:47:12;;;;;;;3.88;3.03;;;;;;;4.05;52.20;95172.25;4839220;29;20033;-74
2023/11/19 08:49:39;;;;;;;3.45;2.75;;;;;;;4.02;51.84;95181.97;4837663;29;20033;-74
2023/11/19 08:52:04;;;;;;;5.97;3.45;;;;;;;4.04;51.75;95178.84;4839263;29;20106;-74
2023/11/19 08:54:30;;;;;;;3.97;3.30;;;;;;;4.08;51.96;95177.69;4838703;29;20492;-73
2023/11/19 08:56:55;;;;;;;4.05;3.13;;;;;;;4.07;51.85;95183.50;4839140;29;20042;-73
2023/11/19 08:59:21;;;;;;;3.35;2.38;;;;;;;3.99;51.43;95185.47;4823547;29;20057;-74
2023/11/19 09:01:47;;;;;;;3.33;2.30;;;;;;;3.96;51.64;95187.03;4855776;29;20481;-74
2023/11/19 09:04:12;;;;;;;4.07;2.75;;;;;;;3.90;52.16;95174.19;4838264;29;20041;-74
2023/11/19 09:06:38;;;;;;;4.20;2.85;;;;;;;3.89;52.32;95175.34;4855354;29;20540;-73
2023/11/19 09:09:05;;;;;;;3.85;2.88;;;;;;;3.91;51.83;95176.53;4855084;29;20034;-74
2023/11/19 09:11:30;;;;;;;5.97;3.28;;;;;;;3.88;51.62;95174.56;4869112;29;20116;-74
2023/11/19 09:13:56;;;;;;;5.05;3.47;;;;;;;3.79;51.84;95149.72;4873972;29;20116;-74
2023/11/19 09:16:21;;;;;;;5.85;4.97;;;;;;;3.88;51.92;95147.38;4873480;29;20128;-74
2023/11/19 09:18:47;;;;;;;3.20;2.60;;;;;;;3.86;51.77;95149.72;4873957;29;20029;-73
2023/11/19 09:21:12;;;;;;;3.33;2.72;;;;;;;3.88;51.78;95163.69;4840913;29;20029;-74
2023/11/19 09:23:39;;;;;;;5.75;3.22;;;;;;;3.89;51.93;95178.84;4856937;29;20036;-75
2023/11/19 09:26:05;;;;;;;4.45;3.00;;;;;;;3.91;51.67;95168.38;4856742;29;20029;-76
2023/11/19 09:28:30;;;;;;;5.22;3.10;;;;;;;3.92;51.84;95186.25;4873341;29;20040;-74
2023/11/19 09:30:56;;;;;;;4.57;2.70;;;;;;;3.95;51.54;95182.72;4873581;29;20029;-73
2023/11/19 09:33:21;;;;;;;4.55;3.05;;;;;;;3.96;51.27;95169.94;4856061;29;20033;-73
2023/11/19 09:35:49;;;;;;;4.40;2.67;;;;;;;3.97;51.32;95168.75;4873506;29;20066;-73
2023/11/19 09:38:15;;;;;;;4.28;2.85;;;;;;;3.96;51.46;95151.66;4871545;29;20040;-74
2023/11/19 09:40:40;;;;;;;3.83;2.85;;;;;;;3.99;50.70;95148.16;4856653;29;20036;-74
2023/11/19 09:43:07;;;;;;;4.25;2.85;;;;;;;4.03;50.80;95150.09;4856543;29;20036;-74
2023/11/19 09:45:50;;;;;;;4.28;3.00;;;;;;;4.06;50.89;95152.03;4856305;29;20029;-74
2023/11/19 09:48:19;;;;;;;4.30;2.78;;;;;;;4.09;50.72;95140.38;4856323;29;20173;-73
2023/11/19 09:50:48;;;;;;;5.47;2.80;;;;;;;4.17;50.47;95114.72;4855982;29;20112;-75
2023/11/19 09:53:15;;;;;;;3.53;3.00;;;;;;;4.30;50.34;95126.75;4856423;29;20064;-73
2023/11/19 09:55:40;;;;;;;4.63;3.65;;;;;;;4.42;50.25;95120.91;4855172;29;20045;-71
2023/11/19 09:58:07;;;;;;;5.20;3.42;;;;;;;4.46;50.08;95121.66;4869501;29;20029;-72
2023/11/19 10:00:32;;;;;;;3.42;2.60;;;;;;;4.52;49.96;95108.41;4872048;29;20064;-72
2023/11/19 10:02:59;;;;;;;4.25;3.03;;;;;;;4.51;49.87;95115.03;4846011;29;20441;-71
2023/11/19 10:05:26;;;;;;;3.95;2.45;;;;;;;4.51;49.89;95112.31;4837450;29;20084;-69
2023/11/19 10:07:52;;;;;;;5.15;3.00;;;;;;;4.62;49.66;95113.06;4837118;29;20038;-72
2023/11/19 10:10:19;;;;;;;3.85;2.70;;;;;;;4.60;49.67;95107.22;4842393;29;20040;-72
2023/11/19 10:12:47;;;;;;;4.53;3.15;;;;;;;4.65;49.79;95108.78;4854138;29;20033;-71
2023/11/19 10:15:26;;;;;;;4.40;2.58;;;;;;;4.60;49.75;95118.13;4840243;29;20037;-74
2023/11/19 10:17:56;;;;;;;5.78;3.78;;;;;;;4.58;49.91;95127.84;4860867;29;20037;-71
2023/11/19 10:20:22;;;;;;;6.50;3.38;;;;;;;4.57;50.33;95123.56;4835341;29;20630;-72
2023/11/19 10:22:47;;;;;;;5.63;3.38;;;;;;;4.49;50.12;95129.03;4843916;29;20108;-72
2023/11/19 10:25:26;;;;;;;4.25;3.03;;;;;;;4.51;50.07;95115.81;4870425;29;20485;-73
2023/11/19 10:27:52;;;;;;;7.32;4.63;;;;;;;4.49;50.07;95104.53;4855945;29;20464;-72
2023/11/19 10:30:26;;;;;;;4.85;3.42;;;;;;;4.45;50.55;95094.81;4855269;29;20025;-72
2023/11/19 10:33:07;;;;;;;6.38;4.18;;;;;;;4.48;50.35;95089.38;4848222;29;20041;-72
2023/11/19 10:35:34;;;;;;;4.15;2.92;;;;;;;4.47;50.02;95084.31;4867514;29;20536;-72
2023/11/19 10:38:01;;;;;;;4.10;2.55;;;;;;;4.45;49.73;95092.09;4870529;29;20025;-73
2023/11/19 10:40:40;;;;;;;3.92;2.88;;;;;;;4.48;49.59;95096.78;4837248;29;20029;-73
2023/11/19 10:43:07;;;;;;;3.55;2.92;;;;;;;4.49;49.75;95101.81;4837007;29;20626;-71
2023/11/19 10:45:33;;;;;;;4.30;2.63;;;;;;;4.45;49.61;95101.03;4853848;29;20065;-73
2023/11/19 10:47:59;;;;;;;3.22;2.15;;;;;;;4.51;49.41;95102.19;4836971;29;20397;-72
2023/11/19 10:50:25;;;;;;;3.90;2.72;;;;;;;4.53;49.45;95101.81;4857170;29;20025;-73
2023/11/19 10:52:55;;;;;;;6.20;3.70;;;;;;;4.56;49.46;95103.75;4855388;29;20041;-76
2023/11/19 10:55:21;;;;;;;3.95;2.53;;;;;;;4.62;49.62;95101.38;4854927;29;20052;-76
2023/11/19 10:57:49;;;;;;;5.07;3.00;;;;;;;4.74;49.30;95096.28;4855401;29;20140;-75
2023/11/19 11:00:16;;;;;;;4.93;2.90;;;;;;;4.73;49.00;95093.97;4839522;29;20493;-75
2023/11/19 11:02:45;;;;;;;4.85;3.03;;;;;;;4.85;48.71;95090.78;4867370;29;20121;-75
2023/11/19 11:05:15;;;;;;;6.22;3.53;;;;;;;4.91;48.71;95093.88;4868723;29;20043;-78
2023/11/19 11:07:41;;;;;;;7.70;3.30;;;;;;;4.95;48.70;95079.06;4867959;29;20048;-80
2023/11/19 11:10:09;;;;;;;4.65;3.25;;;;;;;5.07;48.45;95075.13;4867088;29;20073;-83
2023/11/19 11:12:36;;;;;;;4.88;3.20;;;;;;;5.12;48.37;95063.03;4851889;29;20061;-79
2023/11/19 11:15:04;;;;;;;4.28;2.90;;;;;;;5.01;48.40;95068.53;4843011;29;20036;-84
2023/11/19 11:17:31;;;;;;;9.15;4.65;;;;;;;5.17;48.25;95063.38;4860701;29;20666;-82
2023/11/19 11:19:57;;;;;;;6.50;4.60;;;;;;;5.28;48.14;95066.81;4857140;29;20204;-79
2023/11/19 11:22:23;;;;;;;6.18;4.07;;;;;;;5.40;47.93;95060.13;4870481;29;20145;-75
2023/11/19 11:24:48;;;;;;;8.02;3.25;;;;;;;5.48;48.23;95066.28;4840114;29;20081;-81
2023/11/19 11:27:22;;;;;;;4.45;2.60;;;;;;;5.48;48.22;95071.75;4856855;29;20040;-80
2023/11/19 11:30:01;;;;;;;3.70;2.80;;;;;;;5.50;48.21;95061.97;4843969;29;20033;-77
2023/11/19 11:32:40;;;;;;;4.07;2.95;;;;;;;5.60;47.95;95066.59;4871746;29;20033;-80
2023/11/19 11:35:39;;;;;;;5.65;2.92;;;;;;;5.72;47.39;95065.31;4875518;29;20104;-76
2023/11/19 11:38:06;;;;;;;6.35;3.45;;;;;;;6.10;46.38;95062.69;4850178;29;20460;-79